Weather at Pope Field

Public forecast

Using degrees Fahrenheit for public forecast. Weather courtesy of forecast.io.

Closest aviation weather report (METAR) to Pope Field

Closest report is Indianapolis Regional Airport, 8.1 nm (15.0 km) WNW. Retrieved 2021/01/25 17:35 UTC (0 seconds ago):

KMQJ 251735Z AUTO 05007KT 2SM OVC007 M01/M01 A2994 RMK AO1

Closest aviation forecast (TAF) to Pope Field

Closest forecast is Indianapolis International Airport, 26.1 nm (48.4 km) W. Retrieved 2021/01/25 12:27 UTC (5 hours ago):

TAF KIND 251125Z 2512/2618 06007KT P6SM VCSH OVC008 FM251600 08011KT 3SM -FZRA BR VCSH OVC010 FM251900 08012KT 4SM -SHRA BR OVC007 FM260300 08011G19KT P6SM VCSH OVC005 FM261700 25009KT P6SM OVC007